Time;durP1;ratioP1;P1;durP2;ratioP2;P2;SDS_P1;SDS_P2;PMS_P1;PMS_P2;Temp;Humidity;BMP_temperature;BMP_pressure;BME280_temperature;BME280_humidity;BME280_pressure;Samples;Min_cycle;Max_cycle;Signal;HPM_P1;HPM_P2
2021/09/08 00:00:41;;;;;;;;;14.75;13.50;;;;;22.87;45.71;101420.78;4903114;28;47157;-84
2021/09/08 00:03:06;;;;;;;;;13.50;11.75;;;;;22.87;45.82;101426.16;4921142;28;45421;-84
2021/09/08 00:05:32;;;;;;;;;13.00;11.00;;;;;22.86;45.66;101428.00;4905362;28;45289;-80
2021/09/08 00:07:57;;;;;;;;;13.25;12.00;;;;;22.83;45.92;101417.50;4908153;28;45495;-81
2021/09/08 00:10:23;;;;;;;;;16.50;11.25;;;;;22.86;45.50;101405.72;4918185;28;45268;-81
2021/09/08 00:12:48;;;;;;;;;15.50;12.75;;;;;22.87;45.62;101408.25;4897360;28;46105;-81
2021/09/08 00:15:14;;;;;;;;;15.00;15.00;;;;;22.90;45.88;101412.53;4908301;28;45519;-80
2021/09/08 00:17:40;;;;;;;;;13.50;11.00;;;;;22.85;45.49;101396.81;4918790;28;45308;-80
2021/09/08 00:20:07;;;;;;;;;10.00;10.00;;;;;22.86;45.66;101398.53;4912608;28;45449;-79
2021/09/08 00:22:32;;;;;;;;;12.25;11.75;;;;;22.83;45.63;101396.06;4916807;28;45661;-79
2021/09/08 00:24:58;;;;;;;;;12.50;11.25;;;;;22.80;46.33;101397.16;4915045;28;45519;-80
2021/09/08 00:27:23;;;;;;;;;12.75;11.25;;;;;22.79;45.91;101389.25;4920169;28;45390;-82
2021/09/08 00:29:49;;;;;;;;;12.00;10.75;;;;;22.79;46.28;101394.59;4922123;28;45986;-82
2021/09/08 00:32:14;;;;;;;;;11.75;11.75;;;;;22.79;45.96;101389.25;4919862;28;46903;-81
2021/09/08 00:34:39;;;;;;;;;13.50;12.50;;;;;22.75;46.08;101377.03;4907106;28;45433;-81
2021/09/08 00:37:05;;;;;;;;;11.25;11.00;;;;;22.76;46.43;101382.28;4904416;28;45581;-82
2021/09/08 00:39:30;;;;;;;;;13.00;11.75;;;;;22.73;46.08;101377.16;4902812;29;46466;-82
2021/09/08 00:41:56;;;;;;;;;15.50;12.50;;;;;22.68;46.27;101368.56;4914756;28;45329;-80
2021/09/08 00:44:24;;;;;;;;;11.50;11.50;;;;;22.68;46.38;101369.44;4911056;28;45287;-79
2021/09/08 00:46:50;;;;;;;;;12.25;11.75;;;;;22.66;46.71;101363.34;4903161;28;45205;-75
2021/09/08 00:49:15;;;;;;;;;12.50;11.50;;;;;22.65;46.57;101369.66;4910838;28;45586;-84
2021/09/08 00:51:41;;;;;;;;;13.50;12.00;;;;;22.62;46.83;101364.53;4896977;28;45881;-86
2021/09/08 00:54:16;;;;;;;;;10.00;10.00;;;;;22.57;46.54;101356.84;4921930;28;45292;-84
2021/09/08 00:56:43;;;;;;;;;13.00;10.75;;;;;22.51;47.21;101361.78;4920801;28;45265;-83
2021/09/08 00:59:09;;;;;;;;;12.25;10.00;;;;;22.51;46.67;101367.16;4921745;28;45388;-85
2021/09/08 01:01:34;;;;;;;;;13.00;11.00;;;;;22.49;46.45;101359.25;4907189;28;45485;-86
2021/09/08 01:04:00;;;;;;;;;13.25;10.75;;;;;22.43;47.16;101355.19;4918131;28;45374;-86
2021/09/08 01:06:25;;;;;;;;;12.25;11.00;;;;;22.39;45.99;101356.41;4920885;28;45619;-85
2021/09/08 01:08:51;;;;;;;;;17.75;14.50;;;;;22.39;47.08;101355.53;4904944;28;45927;-86
2021/09/08 01:11:18;;;;;;;;;11.25;10.50;;;;;22.37;47.07;101352.97;4910502;28;45378;-84
2021/09/08 01:13:44;;;;;;;;;15.00;11.25;;;;;22.33;46.54;101349.66;4914986;28;45164;-83
2021/09/08 01:16:10;;;;;;;;;11.00;11.00;;;;;22.31;47.84;101351.59;4903474;28;45177;-85
2021/09/08 01:18:36;;;;;;;;;12.00;11.00;;;;;22.29;46.99;101350.00;4920481;28;46551;-87
2021/09/08 01:21:03;;;;;;;;;10.75;10.00;;;;;22.26;47.13;101349.28;4898284;28;45275;-87
2021/09/08 01:23:28;;;;;;;;;12.50;12.00;;;;;22.25;47.31;101347.53;4893556;29;45349;-86
2021/09/08 01:25:53;;;;;;;;;16.00;12.50;;;;;22.24;46.68;101348.53;4886618;29;46161;-86
2021/09/08 01:28:19;;;;;;;;;11.00;11.00;;;;;22.24;47.45;101342.31;4922081;28;45484;-87
2021/09/08 01:30:44;;;;;;;;;11.75;9.50;;;;;22.17;48.06;101341.06;4905379;28;45284;-86
2021/09/08 01:33:14;;;;;;;;;12.75;12.75;;;;;22.13;47.90;101341.28;4925305;28;45247;-86
2021/09/08 01:35:40;;;;;;;;;12.50;11.75;;;;;22.10;47.85;101343.34;4921396;28;45471;-88
2021/09/08 01:38:06;;;;;;;;;15.25;13.00;;;;;22.05;47.56;101340.13;4920816;28;45267;-87
2021/09/08 01:40:32;;;;;;;;;13.50;11.00;;;;;21.99;47.67;101334.25;4907224;28;45304;-86
2021/09/08 01:42:58;;;;;;;;;13.75;11.25;;;;;21.94;47.29;101330.19;4892165;28;45352;-87
2021/09/08 01:45:24;;;;;;;;;12.75;12.25;;;;;21.86;48.16;101328.94;4895591;28;46234;-86
2021/09/08 01:47:54;;;;;;;;;12.50;12.50;;;;;21.83;48.72;101336.31;4914116;28;45710;-89
2021/09/08 01:50:20;;;;;;;;;14.00;12.50;;;;;21.78;48.98;101331.28;4905525;29;45289;-89
2021/09/08 01:52:45;;;;;;;;;15.25;12.00;;;;;21.74;48.51;101332.47;4905333;28;45423;-85
2021/09/08 01:55:11;;;;;;;;;15.00;14.50;;;;;21.67;48.91;101329.38;4922748;28;45245;-85
2021/09/08 01:57:36;;;;;;;;;14.25;12.50;;;;;21.61;49.33;101316.44;4900660;29;48408;-85
2021/09/08 02:00:04;;;;;;;;;14.50;12.50;;;;;21.56;49.65;101320.28;4905776;28;45261;-84
2021/09/08 02:02:29;;;;;;;;;12.25;12.25;;;;;21.53;49.46;101315.16;4901968;28;45415;-85
2021/09/08 02:04:54;;;;;;;;;15.00;14.25;;;;;21.51;49.63;101313.56;4905471;28;45421;-84
2021/09/08 02:07:20;;;;;;;;;11.00;11.00;;;;;21.48;49.91;101314.66;4922518;28;45422;-85
2021/09/08 02:09:45;;;;;;;;;15.75;13.75;;;;;21.44;49.93;101307.78;4917894;28;45702;-85
2021/09/08 02:12:11;;;;;;;;;12.50;12.00;;;;;21.41;50.50;101305.34;4891134;28;45402;-82
2021/09/08 02:14:36;;;;;;;;;16.50;15.50;;;;;21.38;50.44;101305.56;4900350;29;47325;-83
2021/09/08 02:17:01;;;;;;;;;16.00;14.75;;;;;21.35;50.27;101298.59;4905032;28;47013;-85
2021/09/08 02:19:27;;;;;;;;;13.00;11.75;;;;;21.34;50.52;101295.06;4905281;28;45486;-84
2021/09/08 02:21:52;;;;;;;;;16.25;13.25;;;;;21.32;50.42;101298.81;4904895;28;45370;-87
2021/09/08 02:24:17;;;;;;;;;10.75;10.25;;;;;21.30;50.99;101295.41;4912152;28;45489;-87
2021/09/08 02:26:43;;;;;;;;;13.75;12.50;;;;;21.24;50.13;101285.97;4903493;28;46823;-86
2021/09/08 02:29:12;;;;;;;;;14.25;14.00;;;;;21.22;50.75;101293.25;4897667;28;45380;-88
2021/09/08 02:31:38;;;;;;;;;13.75;12.00;;;;;21.18;50.41;101291.78;4921435;28;45549;-88
2021/09/08 02:34:04;;;;;;;;;16.00;12.50;;;;;21.13;50.96;101295.63;4906628;28;45452;-88
2021/09/08 02:36:30;;;;;;;;;13.75;13.75;;;;;21.09;51.38;101282.56;4904323;28;48625;-86
2021/09/08 02:38:55;;;;;;;;;15.50;13.75;;;;;21.07;51.17;101282.69;4897328;29;45449;-86
2021/09/08 02:41:23;;;;;;;;;14.00;12.75;;;;;21.04;51.85;101279.38;4904538;28;45479;-86
2021/09/08 02:43:49;;;;;;;;;14.75;13.75;;;;;20.98;51.86;101261.91;4904787;28;45390;-86
2021/09/08 02:46:15;;;;;;;;;13.25;13.25;;;;;20.95;51.71;101267.47;4913496;28;46587;-81
2021/09/08 02:48:40;;;;;;;;;15.25;13.75;;;;;20.90;51.91;101263.31;4916533;28;45228;-83
2021/09/08 02:51:05;;;;;;;;;13.00;11.00;;;;;20.87;52.10;101268.84;4906424;28;45492;-82
2021/09/08 02:53:32;;;;;;;;;16.50;14.25;;;;;20.81;51.99;101266.59;4908735;28;45464;-83
2021/09/08 02:55:58;;;;;;;;;14.75;12.75;;;;;20.77;51.86;101259.75;4911311;28;46378;-82
2021/09/08 02:58:23;;;;;;;;;19.50;14.25;;;;;20.73;51.82;101258.25;4912849;28;45253;-83
2021/09/08 03:00:49;;;;;;;;;16.00;15.00;;;;;20.67;52.13;101257.72;4905634;28;45624;-82
2021/09/08 03:03:14;;;;;;;;;16.25;14.50;;;;;20.66;52.78;101256.00;4923593;28;45379;-80
2021/09/08 03:05:39;;;;;;;;;13.75;13.00;;;;;20.63;52.42;101252.69;4922282;28;45491;-80
2021/09/08 03:08:05;;;;;;;;;14.50;14.25;;;;;20.56;52.66;101246.91;4915007;28;45431;-80
2021/09/08 03:10:35;;;;;;;;;14.25;12.50;;;;;20.52;52.77;101248.09;4912499;28;45355;-80
2021/09/08 03:13:01;;;;;;;;;15.00;11.50;;;;;20.46;53.09;101242.19;4920495;28;45304;-80
2021/09/08 03:15:26;;;;;;;;;14.75;13.00;;;;;20.43;53.27;101239.72;4921434;28;45513;-81
2021/09/08 03:17:51;;;;;;;;;13.75;11.25;;;;;20.39;53.57;101242.72;4909260;28;45268;-82
2021/09/08 03:20:17;;;;;;;;;19.50;17.25;;;;;20.34;53.97;101235.88;4902910;28;45342;-81
2021/09/08 03:22:42;;;;;;;;;17.25;15.00;;;;;20.31;54.08;101230.75;4895361;28;46006;-85
2021/09/08 03:25:08;;;;;;;;;15.25;13.00;;;;;20.27;53.93;101236.38;4906038;28;46931;-86
2021/09/08 03:27:34;;;;;;;;;13.00;12.25;;;;;20.26;54.05;101234.66;4918096;28;45435;-81
2021/09/08 03:29:59;;;;;;;;;13.25;13.25;;;;;20.24;54.34;101238.31;4922625;28;45414;-82
2021/09/08 03:32:24;;;;;;;;;16.50;14.25;;;;;20.24;54.41;101237.44;4922503;28;45362;-82
2021/09/08 03:34:50;;;;;;;;;16.50;14.25;;;;;20.20;54.50;101233.28;4904107;28;47287;-81
2021/09/08 03:37:15;;;;;;;;;19.00;14.75;;;;;20.19;54.32;101232.41;4913532;28;45431;-81
2021/09/08 03:39:41;;;;;;;;;14.75;14.00;;;;;20.16;54.83;101224.59;4887022;28;45364;-81
2021/09/08 03:42:06;;;;;;;;;15.00;14.50;;;;;20.17;54.72;101220.13;4906408;28;45461;-80
2021/09/08 03:44:32;;;;;;;;;19.50;16.50;;;;;20.13;55.03;101217.66;4907412;28;45323;-85
2021/09/08 03:46:57;;;;;;;;;18.00;16.25;;;;;20.09;54.76;101205.47;4893686;28;45629;-83
2021/09/08 03:49:22;;;;;;;;;15.75;13.25;;;;;20.11;55.14;101208.03;4916111;28;45172;-81
2021/09/08 03:51:48;;;;;;;;;15.50;13.75;;;;;20.10;55.06;101211.66;4903841;28;45550;-80
2021/09/08 03:54:13;;;;;;;;;16.00;14.75;;;;;20.08;55.43;101202.88;4903626;29;46115;-80
2021/09/08 03:56:39;;;;;;;;;15.00;14.25;;;;;20.05;55.17;101197.75;4903895;28;46712;-86
2021/09/08 03:59:04;;;;;;;;;15.50;13.50;;;;;20.00;55.70;101196.22;4903786;29;45452;-85
2021/09/08 04:01:29;;;;;;;;;15.75;13.75;;;;;19.96;55.76;101192.06;4894404;28;47228;-84
2021/09/08 04:03:55;;;;;;;;;17.75;14.75;;;;;19.94;55.39;101191.31;4912451;28;46412;-83
2021/09/08 04:06:20;;;;;;;;;16.25;16.25;;;;;19.91;55.72;101191.50;4886676;28;45173;-83
2021/09/08 04:08:46;;;;;;;;;13.50;13.50;;;;;19.92;56.27;101198.56;4899751;28;45360;-85
2021/09/08 04:11:11;;;;;;;;;14.75;13.25;;;;;19.87;56.00;101196.19;4921519;28;45468;-85
2021/09/08 04:13:37;;;;;;;;;17.25;15.25;;;;;19.84;56.63;101193.72;4921802;28;45263;-84
2021/09/08 04:16:03;;;;;;;;;18.75;15.50;;;;;19.79;56.40;101183.38;4921678;28;45240;-84
2021/09/08 04:18:28;;;;;;;;;15.75;12.25;;;;;19.75;56.65;101191.66;4917792;28;45457;-83
2021/09/08 04:20:53;;;;;;;;;19.00;15.25;;;;;19.72;56.83;101181.19;4916100;28;45338;-85
2021/09/08 04:23:19;;;;;;;;;16.50;14.50;;;;;19.68;56.25;101173.38;4892104;29;47325;-85
2021/09/08 04:25:44;;;;;;;;;19.25;17.25;;;;;19.66;56.54;101183.31;4913736;28;45347;-85
2021/09/08 04:28:10;;;;;;;;;19.50;15.00;;;;;19.63;57.13;101182.66;4894116;28;45269;-83
2021/09/08 04:30:35;;;;;;;;;16.00;14.75;;;;;19.60;57.33;101188.19;4906053;28;45477;-81
2021/09/08 04:33:00;;;;;;;;;19.25;18.25;;;;;19.57;57.37;101189.22;4912736;28;46393;-81
2021/09/08 04:35:26;;;;;;;;;15.25;14.50;;;;;19.50;57.10;101171.94;4905869;28;45487;-79
2021/09/08 04:37:51;;;;;;;;;18.00;16.00;;;;;19.48;57.32;101173.84;4921577;28;45492;-78
2021/09/08 04:40:17;;;;;;;;;20.50;17.00;;;;;19.47;57.04;101183.63;4921957;28;45362;-79
2021/09/08 04:42:42;;;;;;;;;19.50;17.75;;;;;19.41;57.94;101179.53;4910008;28;45426;-78
2021/09/08 04:45:08;;;;;;;;;20.50;17.50;;;;;19.41;57.73;101182.22;4905647;28;45384;-79
2021/09/08 04:47:34;;;;;;;;;20.00;16.75;;;;;19.39;58.06;101180.59;4909314;28;45232;-79
2021/09/08 04:49:59;;;;;;;;;18.75;17.50;;;;;19.32;57.78;101174.81;4903014;28;45420;-79
2021/09/08 04:52:24;;;;;;;;;20.75;16.25;;;;;19.29;57.98;101175.84;4902787;28;45312;-79
2021/09/08 04:54:50;;;;;;;;;27.25;20.50;;;;;19.31;58.14;101178.44;4902962;28;45550;-79
2021/09/08 04:57:15;;;;;;;;;24.00;19.75;;;;;19.26;58.27;101175.22;4905083;28;45259;-79
2021/09/08 04:59:41;;;;;;;;;18.75;15.50;;;;;19.29;58.19;101183.84;4920200;28;46950;-80
2021/09/08 05:02:06;;;;;;;;;20.25;17.00;;;;;19.25;58.05;101178.81;4910003;28;46150;-80
2021/09/08 05:04:32;;;;;;;;;19.00;19.00;;;;;19.25;58.37;101182.34;4916417;28;45386;-80
2021/09/08 05:06:57;;;;;;;;;18.25;17.75;;;;;19.22;58.55;101183.38;4918067;28;45284;-80
2021/09/08 05:09:22;;;;;;;;;19.75;18.50;;;;;19.18;58.80;101179.22;4916668;28;45714;-80
2021/09/08 05:11:48;;;;;;;;;20.00;18.25;;;;;19.19;58.75;101177.38;4923245;28;45530;-80
2021/09/08 05:14:13;;;;;;;;;14.25;13.50;;;;;19.19;58.71;101174.72;4917868;28;45444;-82
2021/09/08 05:16:38;;;;;;;;;18.50;17.50;;;;;19.21;59.04;101178.16;4917301;28;45259;-84
2021/09/08 05:19:04;;;;;;;;;23.25;17.25;;;;;19.25;58.95;101179.69;4922722;28;46329;-76
2021/09/08 05:21:29;;;;;;;;;23.75;18.25;;;;;19.26;59.05;101173.38;4921949;28;45345;-76
2021/09/08 05:23:55;;;;;;;;;21.00;18.00;;;;;19.33;58.71;101177.38;4920623;28;45393;-76
2021/09/08 05:26:20;;;;;;;;;19.25;17.25;;;;;19.35;58.83;101179.94;4921260;28;45382;-76
2021/09/08 05:28:47;;;;;;;;;22.00;18.00;;;;;19.39;58.85;101178.78;4923674;28;46489;-76
2021/09/08 05:31:12;;;;;;;;;17.75;17.75;;;;;19.41;58.78;101173.38;4924663;28;45529;-75
2021/09/08 05:33:38;;;;;;;;;16.50;15.50;;;;;19.44;58.76;101175.81;4923298;28;45273;-75
2021/09/08 05:36:03;;;;;;;;;16.75;16.50;;;;;19.47;58.88;101185.44;4924975;28;45248;-76
2021/09/08 05:38:28;;;;;;;;;20.50;19.50;;;;;19.47;58.79;101170.31;4910949;28;45366;-76
2021/09/08 05:40:54;;;;;;;;;19.00;17.75;;;;;19.55;58.67;101176.00;4910026;28;45300;-75
2021/09/08 05:43:20;;;;;;;;;19.75;18.75;;;;;19.62;58.40;101186.28;4917482;28;45399;-76
2021/09/08 05:45:45;;;;;;;;;25.75;20.25;;;;;19.65;58.18;101183.41;4919367;28;45417;-76
2021/09/08 05:48:10;;;;;;;;;21.75;16.00;;;;;19.68;58.09;101172.53;4918575;28;45330;-76
2021/09/08 05:50:36;;;;;;;;;15.50;15.50;;;;;19.69;58.03;101163.59;4921575;28;46425;-76
2021/09/08 05:53:03;;;;;;;;;20.00;17.25;;;;;19.71;58.48;101164.34;4919694;28;45331;-76
2021/09/08 05:55:32;;;;;;;;;20.50;18.00;;;;;19.72;57.93;101171.38;4917020;28;45805;-84
2021/09/08 05:57:57;;;;;;;;;22.50;17.25;;;;;19.74;58.21;101155.28;4919117;28;45476;-83
2021/09/08 06:00:22;;;;;;;;;17.75;17.00;;;;;19.73;57.61;101167.75;4900770;28;47274;-76
2021/09/08 06:02:48;;;;;;;;;20.25;17.25;;;;;19.78;57.65;101167.44;4922375;28;45274;-76
2021/09/08 06:05:13;;;;;;;;;18.50;18.00;;;;;19.75;58.29;101165.88;4918275;28;45425;-76
2021/09/08 06:07:39;;;;;;;;;23.00;16.75;;;;;19.75;58.05;101167.66;4905363;28;45284;-76
2021/09/08 06:10:05;;;;;;;;;17.00;15.00;;;;;19.81;58.00;101179.72;4917021;28;45439;-76
2021/09/08 06:12:30;;;;;;;;;25.25;18.50;;;;;19.74;57.54;101156.16;4920091;28;46025;-76
2021/09/08 06:14:56;;;;;;;;;14.75;13.50;;;;;19.76;58.09;101156.03;4913058;28;45156;-77
2021/09/08 06:17:21;;;;;;;;;18.25;17.75;;;;;19.77;57.92;101160.41;4923507;28;45497;-75
2021/09/08 06:19:47;;;;;;;;;25.00;22.75;;;;;19.78;57.67;101160.31;4922177;28;46439;-75
2021/09/08 06:22:12;;;;;;;;;20.50;17.75;;;;;19.82;57.52;101158.31;4911235;28;45367;-75
2021/09/08 06:24:38;;;;;;;;;18.50;17.25;;;;;19.82;57.82;101154.78;4910670;28;45231;-76
2021/09/08 06:27:03;;;;;;;;;21.50;19.75;;;;;19.88;57.09;101163.22;4923041;28;45328;-76
2021/09/08 06:29:30;;;;;;;;;18.25;18.25;;;;;19.94;57.41;101159.31;4921816;28;45468;-76
2021/09/08 06:31:55;;;;;;;;;19.75;19.25;;;;;20.06;57.56;101156.75;4909303;28;45659;-76
2021/09/08 06:34:20;;;;;;;;;25.00;20.75;;;;;20.13;57.02;101153.63;4905177;28;45335;-76
2021/09/08 06:36:46;;;;;;;;;16.25;16.25;;;;;20.19;57.28;101155.03;4904956;28;45339;-76
2021/09/08 06:39:11;;;;;;;;;21.50;19.00;;;;;20.26;56.33;101154.59;4923587;28;46127;-75
2021/09/08 06:41:37;;;;;;;;;21.25;19.25;;;;;20.32;56.89;101146.19;4921122;28;45467;-76
2021/09/08 06:44:03;;;;;;;;;19.75;17.50;;;;;20.37;56.90;101149.41;4905101;28;45456;-76
2021/09/08 06:46:28;;;;;;;;;20.00;15.50;;;;;20.46;57.04;101147.91;4904542;28;45290;-76
2021/09/08 06:48:54;;;;;;;;;20.75;18.00;;;;;20.51;56.92;101144.91;4923406;28;46321;-76
2021/09/08 06:51:20;;;;;;;;;19.25;16.50;;;;;20.57;56.34;101150.66;4923653;28;45588;-76
2021/09/08 06:53:45;;;;;;;;;20.75;18.25;;;;;20.64;56.98;101147.59;4911992;28;45228;-76
2021/09/08 06:56:11;;;;;;;;;21.00;18.50;;;;;20.67;56.57;101144.69;4919027;28;46946;-76
2021/09/08 06:58:36;;;;;;;;;18.25;18.00;;;;;20.73;56.89;101146.94;4904529;29;46293;-76
2021/09/08 07:01:01;;;;;;;;;20.50;18.50;;;;;20.77;56.54;101150.25;4904350;29;45256;-76
2021/09/08 07:03:27;;;;;;;;;21.00;19.25;;;;;20.87;56.45;101156.66;4904720;29;45758;-76
2021/09/08 07:05:52;;;;;;;;;18.25;17.00;;;;;20.87;55.78;101137.94;4916795;28;45200;-76
2021/09/08 07:08:17;;;;;;;;;17.00;16.75;;;;;20.94;56.00;101143.69;4921718;28;45180;-76
2021/09/08 07:10:43;;;;;;;;;19.50;18.75;;;;;20.90;56.31;101129.72;4921561;28;45623;-76
2021/09/08 07:13:08;;;;;;;;;19.00;17.50;;;;;20.94;56.19;101130.34;4908672;28;45301;-76
2021/09/08 07:15:34;;;;;;;;;18.00;16.25;;;;;21.04;56.35;101133.25;4921955;28;45362;-76
2021/09/08 07:18:00;;;;;;;;;18.50;17.75;;;;;21.10;55.87;101126.63;4923238;28;45499;-76
2021/09/08 07:20:26;;;;;;;;;17.50;15.50;;;;;21.18;56.43;101126.06;4912532;28;45590;-76
2021/09/08 07:22:51;;;;;;;;;21.50;19.50;;;;;21.23;55.78;101126.59;4904906;28;45284;-76
2021/09/08 07:25:17;;;;;;;;;16.50;16.50;;;;;21.32;55.47;101131.25;4903862;29;45322;-76
2021/09/08 07:27:43;;;;;;;;;19.50;15.25;;;;;21.36;55.29;101124.72;4903859;29;46320;-76
2021/09/08 07:30:09;;;;;;;;;18.50;16.75;;;;;21.45;55.10;101125.88;4907608;28;45213;-76
2021/09/08 07:32:34;;;;;;;;;21.50;18.50;;;;;21.52;54.82;101131.63;4915755;28;45310;-76
2021/09/08 07:35:00;;;;;;;;;15.25;14.25;;;;;21.62;54.86;101128.25;4907804;28;45629;-76
2021/09/08 07:37:27;;;;;;;;;18.75;17.50;;;;;21.69;54.74;101132.19;4918265;28;45494;-76
2021/09/08 07:39:53;;;;;;;;;19.25;15.25;;;;;21.72;54.86;101120.41;4904156;28;45223;-76
2021/09/08 07:42:19;;;;;;;;;22.00;16.00;;;;;21.71;54.75;101111.50;4903776;29;45298;-76
2021/09/08 07:44:44;;;;;;;;;17.00;15.75;;;;;21.73;54.18;101109.56;4903692;29;45574;-76
2021/09/08 07:47:10;;;;;;;;;16.00;15.50;;;;;21.78;54.09;101114.59;4904178;28;46122;-75
2021/09/08 07:49:37;;;;;;;;;25.50;21.00;;;;;21.84;54.38;101115.94;4903851;28;45393;-76
2021/09/08 07:52:03;;;;;;;;;16.00;14.25;;;;;21.84;54.98;101115.94;4916553;28;45351;-76
2021/09/08 07:54:28;;;;;;;;;23.25;19.75;;;;;21.83;53.85;101107.06;4908219;28;45410;-75
2021/09/08 07:56:54;;;;;;;;;22.50;19.00;;;;;21.83;54.18;101106.22;4913160;28;46616;-76
2021/09/08 07:59:19;;;;;;;;;22.50;17.50;;;;;21.90;54.25;101108.31;4903603;29;45252;-76
2021/09/08 08:01:45;;;;;;;;;16.75;16.25;;;;;21.93;54.49;101099.22;4903811;28;45332;-76
2021/09/08 08:04:10;;;;;;;;;18.50;16.75;;;;;21.95;54.25;101099.13;4903442;29;45165;-75
2021/09/08 08:06:37;;;;;;;;;16.50;14.75;;;;;21.99;54.48;101103.25;4903454;29;45250;-76
2021/09/08 08:09:03;;;;;;;;;20.50;17.75;;;;;22.06;54.25;101108.97;4906711;28;45268;-76
2021/09/08 08:11:28;;;;;;;;;18.75;17.50;;;;;22.09;54.52;101108.75;4909981;28;45449;-76
2021/09/08 08:13:54;;;;;;;;;20.50;19.75;;;;;22.11;54.31;101105.00;4903940;29;45415;-76
2021/09/08 08:16:19;;;;;;;;;17.75;17.25;;;;;22.17;53.92;101114.38;4903633;28;46318;-77
2021/09/08 08:18:45;;;;;;;;;20.75;17.00;;;;;22.17;54.31;101109.03;4903349;29;45333;-76
2021/09/08 08:21:10;;;;;;;;;18.75;18.50;;;;;22.25;53.83;101111.94;4914433;28;45378;-76
2021/09/08 08:23:36;;;;;;;;;19.75;17.00;;;;;22.28;53.71;101108.19;4903494;28;45441;-76
2021/09/08 08:26:01;;;;;;;;;20.50;16.50;;;;;22.32;54.36;101108.81;4915185;28;45864;-77
2021/09/08 08:28:27;;;;;;;;;18.50;17.25;;;;;22.33;54.40;101097.13;4916385;28;45416;-76
2021/09/08 08:30:53;;;;;;;;;17.75;16.25;;;;;22.36;53.95;101105.78;4919327;28;45290;-75
2021/09/08 08:33:18;;;;;;;;;20.50;19.25;;;;;22.38;53.57;101094.94;4916227;28;45436;-75
2021/09/08 08:35:44;;;;;;;;;23.75;19.50;;;;;22.37;53.75;101101.28;4909334;28;46371;-76
2021/09/08 08:38:09;;;;;;;;;21.00;18.25;;;;;22.40;54.42;101105.56;4921134;28;45156;-76
2021/09/08 08:40:35;;;;;;;;;19.75;19.00;;;;;22.41;54.21;101099.19;4920101;28;45511;-76
2021/09/08 08:43:01;;;;;;;;;20.25;20.25;;;;;22.44;54.50;101098.97;4909739;28;45311;-76
2021/09/08 08:45:28;;;;;;;;;20.25;18.00;;;;;22.46;54.63;101099.69;4911150;28;46093;-74
2021/09/08 08:47:54;;;;;;;;;20.50;18.75;;;;;22.47;53.78;101096.88;4902916;29;45437;-76
2021/09/08 08:50:21;;;;;;;;;20.25;17.25;;;;;22.47;54.23;101086.19;4905292;28;45507;-76
2021/09/08 08:52:46;;;;;;;;;27.75;18.50;;;;;22.54;54.12;101091.06;4912501;28;45537;-76
2021/09/08 08:55:12;;;;;;;;;16.25;15.75;;;;;22.52;54.44;101076.94;4902409;29;46497;-76
2021/09/08 08:57:37;;;;;;;;;24.75;20.00;;;;;22.58;53.92;101089.84;4902793;28;45261;-76
2021/09/08 09:00:05;;;;;;;;;16.00;15.50;;;;;22.61;53.89;101076.22;4903334;28;45248;-76
2021/09/08 09:02:32;;;;;;;;;18.25;17.75;;;;;22.66;54.55;101081.19;4920053;28;45503;-75
2021/09/08 09:04:59;;;;;;;;;19.00;18.00;;;;;22.66;53.93;101074.03;4917623;28;46266;-76
2021/09/08 09:07:29;;;;;;;;;19.50;17.75;;;;;22.72;54.03;101077.22;4921835;28;45367;-76
2021/09/08 09:09:57;;;;;;;;;23.50;19.25;;;;;22.75;53.81;101074.28;4920290;28;45160;-76
2021/09/08 09:12:34;;;;;;;;;22.00;20.00;;;;;22.75;54.70;101071.59;4917758;28;45867;-76
2021/09/08 09:15:04;;;;;;;;;21.00;19.25;;;;;22.76;54.51;101063.47;4921428;28;45401;-76
2021/09/08 09:17:31;;;;;;;;;19.75;15.75;;;;;22.79;54.00;101062.34;4921565;28;45248;-76
2021/09/08 09:20:00;;;;;;;;;15.50;15.00;;;;;22.79;54.12;101055.16;4920763;28;45224;-76
2021/09/08 09:22:42;;;;;;;;;18.50;16.50;;;;;22.85;54.35;101055.63;4918196;28;45501;-76
2021/09/08 09:25:14;;;;;;;;;19.50;17.25;;;;;22.88;54.40;101050.88;4914835;28;46376;-76
2021/09/08 09:27:51;;;;;;;;;17.50;17.00;;;;;22.91;53.93;101049.78;4913109;28;45242;-76
2021/09/08 09:30:19;;;;;;;;;21.25;18.25;;;;;22.94;54.75;101057.56;4913569;28;45435;-76
2021/09/08 09:32:47;;;;;;;;;21.75;20.00;;;;;22.97;54.22;101048.41;4906074;28;45427;-76
2021/09/08 09:35:16;;;;;;;;;18.00;14.25;;;;;22.99;53.87;101058.03;4918270;28;46368;-75
2021/09/08 09:37:48;;;;;;;;;18.75;15.00;;;;;23.04;53.87;101060.34;4913790;28;45510;-75
2021/09/08 09:40:17;;;;;;;;;18.75;18.50;;;;;23.08;54.14;101056.47;4902479;28;45386;-76
2021/09/08 09:42:45;;;;;;;;;20.75;18.50;;;;;23.08;54.44;101055.59;4905464;28;45537;-76
2021/09/08 09:45:12;;;;;;;;;23.00;19.25;;;;;23.12;54.68;101052.53;4902149;29;45479;-76
2021/09/08 09:47:40;;;;;;;;;20.50;18.25;;;;;23.13;54.78;101048.03;4911349;28;45625;-76
2021/09/08 09:50:09;;;;;;;;;18.25;16.75;;;;;23.21;54.26;101058.97;4919473;28;45329;-76
2021/09/08 09:52:35;;;;;;;;;18.50;18.50;;;;;23.24;54.34;101050.66;4916585;28;45721;-76
2021/09/08 09:55:02;;;;;;;;;21.50;18.50;;;;;23.30;54.67;101048.47;4917875;28;45418;-76
2021/09/08 09:57:28;;;;;;;;;18.25;17.50;;;;;23.31;53.95;101042.97;4923611;28;45603;-75
2021/09/08 09:59:53;;;;;;;;;18.75;17.00;;;;;23.37;54.36;101047.84;4913463;28;45462;-75
2021/09/08 10:02:19;;;;;;;;;18.00;17.50;;;;;23.36;54.56;101042.59;4905162;29;45296;-76
2021/09/08 10:04:48;;;;;;;;;20.25;17.50;;;;;23.37;53.96;101037.09;4905228;29;45449;-75
2021/09/08 10:07:17;;;;;;;;;21.75;17.25;;;;;23.42;54.10;101046.59;4888419;28;45866;-75
2021/09/08 10:09:44;;;;;;;;;20.00;18.00;;;;;23.42;54.08;101036.72;4918751;28;45259;-75
2021/09/08 10:12:11;;;;;;;;;23.00;18.25;;;;;23.46;54.06;101037.28;4923746;28;45234;-76
2021/09/08 10:14:37;;;;;;;;;22.00;17.00;;;;;23.52;54.01;101039.50;4924065;28;45179;-76
2021/09/08 10:17:04;;;;;;;;;20.50;17.00;;;;;23.52;54.39;101041.34;4924232;28;45235;-76
2021/09/08 10:19:31;;;;;;;;;14.75;14.25;;;;;23.54;54.87;101036.69;4915292;28;45540;-76
2021/09/08 10:22:09;;;;;;;;;19.25;17.75;;;;;23.58;54.42;101027.41;4904925;28;45470;-76
2021/09/08 10:24:34;;;;;;;;;22.00;18.50;;;;;23.64;54.43;101026.88;4912348;28;45429;-76
2021/09/08 10:27:00;;;;;;;;;17.25;16.25;;;;;23.67;54.17;101028.47;4923336;28;45296;-76
2021/09/08 10:29:29;;;;;;;;;18.50;16.25;;;;;23.68;53.94;101031.00;4916879;28;45507;-76
2021/09/08 10:31:57;;;;;;;;;17.25;15.00;;;;;23.69;53.47;101027.34;4917332;28;45263;-76
2021/09/08 10:34:23;;;;;;;;;17.75;17.50;;;;;23.71;54.67;101016.47;4923364;28;47557;-76
2021/09/08 10:36:50;;;;;;;;;19.25;17.00;;;;;23.74;53.58;101013.53;4924052;28;45559;-76
2021/09/08 10:39:18;;;;;;;;;16.00;15.75;;;;;23.78;53.58;101011.47;4913946;28;45439;-76
2021/09/08 10:41:53;;;;;;;;;17.25;17.25;;;;;23.77;54.67;101015.97;4919638;28;45405;-76
2021/09/08 10:44:38;;;;;;;;;15.50;15.50;;;;;23.78;53.67;101000.72;4923311;28;46441;-76
2021/09/08 10:47:04;;;;;;;;;19.75;16.00;;;;;23.81;54.08;101008.50;4904199;28;45364;-76
2021/09/08 10:49:41;;;;;;;;;17.50;16.50;;;;;23.92;53.87;101004.91;4915958;28;45450;-76
2021/09/08 10:52:30;;;;;;;;;21.00;17.50;;;;;23.99;53.95;101011.44;4917496;28;45519;-76
2021/09/08 10:54:58;;;;;;;;;20.25;18.25;;;;;24.00;53.67;101002.38;4893059;28;45580;-76
2021/09/08 10:57:42;;;;;;;;;21.25;18.25;;;;;24.00;53.88;101018.50;4904508;28;45427;-76
2021/09/08 11:00:09;;;;;;;;;23.00;18.00;;;;;23.97;53.67;101002.66;4904963;29;45538;-77
2021/09/08 11:02:42;;;;;;;;;22.50;18.25;;;;;24.02;53.37;101000.44;4904375;28;45386;-76
2021/09/08 11:05:09;;;;;;;;;19.00;16.75;;;;;23.99;53.59;101000.69;4904745;28;45496;-76